createdAt,value
2023-03-28T00:00:11.074Z,100873.16
2023-03-28T00:02:38.197Z,100864.66
2023-03-28T00:05:04.644Z,100867.16
2023-03-28T00:07:31.440Z,100880.34
2023-03-28T00:09:57.793Z,100889.03
2023-03-28T00:12:24.195Z,100904.66
2023-03-28T00:14:50.857Z,100899.97
2023-03-28T00:17:17.301Z,100909.03
2023-03-28T00:19:43.983Z,100910.47
2023-03-28T00:22:10.314Z,100901.78
2023-03-28T00:24:37.096Z,100898.72
2023-03-28T00:27:03.580Z,100896.88
2023-03-28T00:29:29.919Z,100889.03
2023-03-28T00:31:56.622Z,100889.25
2023-03-28T00:34:23.485Z,100910.25
2023-03-28T00:36:50.237Z,100918.72
2023-03-28T00:39:16.886Z,100918.91
2023-03-28T00:41:43.181Z,100927.78
2023-03-28T00:44:09.634Z,100934.81
2023-03-28T00:46:36.648Z,100944.50
2023-03-28T00:49:03.070Z,100925.72
2023-03-28T00:51:29.869Z,100936.44
2023-03-28T00:53:56.167Z,100953.38
2023-03-28T00:56:22.578Z,100961.81
2023-03-28T00:58:49.000Z,100962.63
2023-03-28T01:01:15.425Z,100960.97
2023-03-28T01:03:42.561Z,100961.00
2023-03-28T01:06:09.425Z,100962.25
2023-03-28T01:08:36.306Z,100967.00
2023-03-28T01:11:02.728Z,100966.56
2023-03-28T01:13:29.576Z,100977.06
2023-03-28T01:15:56.220Z,100981.00
2023-03-28T01:18:23.589Z,100982.25
2023-03-28T01:20:51.438Z,100992.56
2023-03-28T01:23:17.828Z,100994.59
2023-03-28T01:25:44.193Z,100998.31
2023-03-28T01:28:10.571Z,101008.63
2023-03-28T01:30:36.884Z,101012.34
2023-03-28T01:33:03.621Z,101009.22
2023-03-28T01:35:30.012Z,101023.06
2023-03-28T01:37:56.578Z,101015.06
2023-03-28T01:40:22.952Z,101021.41
2023-03-28T01:42:49.282Z,101026.75
2023-03-28T01:45:15.843Z,101027.22
2023-03-28T01:47:42.240Z,101033.81
2023-03-28T01:50:08.746Z,101025.16
2023-03-28T01:52:35.191Z,101035.25
2023-03-28T01:55:01.964Z,101038.91
2023-03-28T01:57:28.740Z,101041.22
2023-03-28T01:59:55.086Z,101039.16
2023-03-28T02:02:21.553Z,101046.75
2023-03-28T02:04:48.082Z,101046.19
2023-03-28T02:07:14.373Z,101049.66
2023-03-28T02:09:40.925Z,101055.22
2023-03-28T02:12:07.842Z,101069.03
2023-03-28T02:14:34.615Z,101066.16
2023-03-28T02:17:01.332Z,101069.84
2023-03-28T02:19:28.362Z,101068.41
2023-03-28T02:21:54.758Z,101079.38
2023-03-28T02:24:21.645Z,101078.34
2023-03-28T02:26:48.099Z,101077.69
2023-03-28T02:29:14.443Z,101081.41
2023-03-28T02:31:41.036Z,101084.50
2023-03-28T02:34:07.421Z,101093.16
2023-03-28T02:36:33.843Z,101091.50
2023-03-28T02:39:00.124Z,101091.53
2023-03-28T02:41:26.941Z,101102.66
2023-03-28T02:43:53.408Z,101095.84
2023-03-28T02:46:20.130Z,101105.34
2023-03-28T02:48:46.781Z,101103.47
2023-03-28T02:51:13.667Z,101098.34
2023-03-28T02:53:40.455Z,101099.38
2023-03-28T02:56:06.871Z,101090.91
2023-03-28T02:58:33.815Z,101093.16
2023-03-28T03:01:00.278Z,101086.56
2023-03-28T03:03:27.335Z,101099.38
2023-03-28T03:05:53.771Z,101093.75
2023-03-28T03:08:20.125Z,101095.84
2023-03-28T03:10:46.453Z,101101.41
2023-03-28T03:13:12.869Z,101110.91
2023-03-28T03:15:39.240Z,101102.44
2023-03-28T03:18:05.861Z,101097.88
2023-03-28T03:20:32.238Z,101109.84
2023-03-28T03:22:58.614Z,101111.72
2023-03-28T03:25:24.930Z,101111.72
2023-03-28T03:27:51.802Z,101118.31
2023-03-28T03:30:18.521Z,101120.56
2023-03-28T03:32:44.892Z,101127.81
2023-03-28T03:35:11.572Z,101130.91
2023-03-28T03:37:38.091Z,101129.44
2023-03-28T03:40:05.239Z,101139.56
2023-03-28T03:42:31.820Z,101142.47
2023-03-28T03:44:58.585Z,101156.47
2023-03-28T03:47:24.953Z,101150.06
2023-03-28T03:49:51.806Z,101151.75
2023-03-28T03:52:18.160Z,101153.38
2023-03-28T03:54:44.678Z,101158.75
2023-03-28T03:57:11.177Z,101149.47
2023-03-28T03:59:37.639Z,101151.13
2023-03-28T04:02:04.523Z,101167.19
2023-03-28T04:04:30.997Z,101166.34
2023-03-28T04:06:57.351Z,101176.91
2023-03-28T04:09:23.785Z,101168.22
2023-03-28T04:11:50.254Z,101172.75
2023-03-28T04:14:16.649Z,101168.03
2023-03-28T04:16:43.622Z,101179.16
2023-03-28T04:19:10.269Z,101180.78
2023-03-28T04:21:36.598Z,101179.34
2023-03-28T04:24:03.027Z,101187.19
2023-03-28T04:26:29.972Z,101192.13
2023-03-28T04:28:56.440Z,101202.66
2023-03-28T04:31:22.870Z,101198.09
2023-03-28T04:33:49.280Z,101200.38
2023-03-28T04:36:15.657Z,101203.66
2023-03-28T04:38:42.049Z,101207.78
2023-03-28T04:41:08.583Z,101212.94
2023-03-28T04:43:34.893Z,101220.56
2023-03-28T04:46:01.483Z,101220.56
2023-03-28T04:48:28.109Z,101220.56
2023-03-28T04:50:54.939Z,101231.69
2023-03-28T04:53:21.291Z,101235.19
2023-03-28T04:55:47.621Z,101242.19
2023-03-28T04:58:13.994Z,101242.22
2023-03-28T05:00:40.356Z,101253.56
2023-03-28T05:03:06.844Z,101256.41
2023-03-28T05:05:33.427Z,101261.78
2023-03-28T05:07:59.916Z,101262.38
2023-03-28T05:10:26.215Z,101269.19
2023-03-28T05:12:52.583Z,101277.84
2023-03-28T05:15:21.259Z,101284.25
2023-03-28T05:17:50.398Z,101284.69
2023-03-28T05:20:16.835Z,101281.38
2023-03-28T05:22:43.331Z,101299.72
2023-03-28T05:25:09.726Z,101295.56
2023-03-28T05:27:36.149Z,101298.41
2023-03-28T05:30:02.569Z,101300.47
2023-03-28T05:32:28.949Z,101313.09
2023-03-28T05:34:55.396Z,101321.91
2023-03-28T05:37:21.729Z,101330.19
2023-03-28T05:39:48.187Z,101328.13
2023-03-28T05:42:15.198Z,101330.19
2023-03-28T05:44:41.523Z,101329.16
2023-03-28T05:47:08.332Z,101334.91
2023-03-28T05:49:34.629Z,101339.00
2023-03-28T05:52:01.837Z,101338.25
2023-03-28T05:54:28.288Z,101351.03
2023-03-28T05:56:55.340Z,101355.53
2023-03-28T05:59:21.672Z,101356.53
2023-03-28T06:01:48.420Z,101360.84
2023-03-28T06:04:14.912Z,101362.69
2023-03-28T06:06:41.374Z,101369.69
2023-03-28T06:09:08.055Z,101379.59
2023-03-28T06:11:34.388Z,101380.00
2023-03-28T06:14:01.167Z,101394.47
2023-03-28T06:16:31.307Z,101396.94
2023-03-28T06:19:10.630Z,101397.94
2023-03-28T06:21:41.547Z,101403.28
2023-03-28T06:24:07.836Z,101407.88
2023-03-28T06:26:34.300Z,101407.63
2023-03-28T06:29:00.834Z,101408.03
2023-03-28T06:31:27.585Z,101409.50
2023-03-28T06:33:54.047Z,101418.31
2023-03-28T06:36:20.417Z,101420.19
2023-03-28T06:38:46.774Z,101427.16
2023-03-28T06:41:13.280Z,101422.69
2023-03-28T06:43:39.805Z,101423.50
2023-03-28T06:46:06.229Z,101437.72
2023-03-28T06:48:35.660Z,101436.88
2023-03-28T06:51:02.610Z,101441.59
2023-03-28T06:53:29.753Z,101436.31
2023-03-28T06:55:56.074Z,101448.44
2023-03-28T06:58:22.578Z,101460.56
2023-03-28T07:00:48.934Z,101451.13
2023-03-28T07:03:15.335Z,101459.13
2023-03-28T07:05:42.189Z,101464.06
2023-03-28T07:08:08.803Z,101465.09
2023-03-28T07:10:35.169Z,101458.78
2023-03-28T07:13:01.925Z,101461.59
2023-03-28T07:15:28.962Z,101469.00
2023-03-28T07:17:55.559Z,101470.03
2023-03-28T07:20:22.186Z,101473.53
2023-03-28T07:22:48.974Z,101478.06
2023-03-28T07:25:15.300Z,101478.63
2023-03-28T07:27:41.823Z,101487.31
2023-03-28T07:30:08.217Z,101479.09
2023-03-28T07:32:47.455Z,101476.41
2023-03-28T07:35:18.836Z,101489.44
2023-03-28T07:37:45.556Z,101483.03
2023-03-28T07:40:12.004Z,101503.41
2023-03-28T07:42:38.398Z,101494.13
2023-03-28T07:45:04.914Z,101501.56
2023-03-28T07:47:31.596Z,101498.66
2023-03-28T07:49:58.240Z,101494.97
2023-03-28T07:52:24.855Z,101498.88
2023-03-28T07:54:51.528Z,101498.88
2023-03-28T07:57:18.508Z,101498.41
2023-03-28T07:59:44.893Z,101500.91
2023-03-28T08:02:11.248Z,101515.94
2023-03-28T08:04:37.516Z,101518.63
2023-03-28T08:07:03.949Z,101518.00
2023-03-28T08:09:30.350Z,101529.53
2023-03-28T08:11:56.634Z,101523.94
2023-03-28T08:14:22.949Z,101531.59
2023-03-28T08:16:49.724Z,101533.22
2023-03-28T08:19:16.507Z,101531.59
2023-03-28T08:21:43.642Z,101530.75
2023-03-28T08:24:09.943Z,101544.34
2023-03-28T08:26:36.405Z,101539.00
2023-03-28T08:29:03.440Z,101540.84
2023-03-28T08:31:29.904Z,101552.78
2023-03-28T08:33:56.297Z,101543.91
2023-03-28T08:36:22.955Z,101543.91
2023-03-28T08:38:49.403Z,101549.44
2023-03-28T08:41:15.760Z,101543.91
2023-03-28T08:43:42.238Z,101547.59
2023-03-28T08:46:08.578Z,101551.13
2023-03-28T08:48:35.298Z,101543.28
2023-03-28T08:51:01.757Z,101540.41
2023-03-28T08:53:28.736Z,101558.31
2023-03-28T08:55:55.175Z,101548.63
2023-03-28T08:58:21.792Z,101546.75
2023-03-28T09:00:48.307Z,101556.66
2023-03-28T09:03:14.859Z,101564.69
2023-03-28T09:05:41.640Z,101555.81
2023-03-28T09:08:08.199Z,101556.66
2023-03-28T09:10:35.378Z,101562.03
2023-03-28T09:13:01.856Z,101567.38
2023-03-28T09:15:28.228Z,101564.69
2023-03-28T09:17:54.636Z,101571.06
2023-03-28T09:20:21.360Z,101571.91
2023-03-28T09:22:47.747Z,101564.03
2023-03-28T09:25:14.271Z,101565.06
2023-03-28T09:27:40.647Z,101573.09
2023-03-28T09:30:07.441Z,101569.41
2023-03-28T09:32:33.885Z,101567.94
2023-03-28T09:35:00.480Z,101590.22
2023-03-28T09:37:27.578Z,101582.16
2023-03-28T09:39:54.026Z,101582.72
2023-03-28T09:42:20.589Z,101586.69
2023-03-28T09:44:54.372Z,101580.53
2023-03-28T09:47:21.235Z,101587.72
2023-03-28T09:49:48.560Z,101589.38
2023-03-28T09:52:15.950Z,101592.22
2023-03-28T09:54:42.300Z,101595.09
2023-03-28T09:57:08.719Z,101588.75
2023-03-28T09:59:35.090Z,101597.59
2023-03-28T10:02:02.124Z,101588.09
2023-03-28T10:04:29.170Z,101602.31
2023-03-28T10:06:56.136Z,101600.66
2023-03-28T10:09:22.587Z,101596.97
2023-03-28T10:11:49.278Z,101614.00
2023-03-28T10:14:15.931Z,101621.88
2023-03-28T10:16:43.373Z,101619.19
2023-03-28T10:19:10.395Z,101627.44
2023-03-28T10:21:37.248Z,101631.97
2023-03-28T10:24:04.055Z,101632.81
2023-03-28T10:26:30.483Z,101632.53
2023-03-28T10:28:57.499Z,101635.47
2023-03-28T10:31:23.875Z,101637.31
2023-03-28T10:33:50.189Z,101633.63
2023-03-28T10:36:17.129Z,101649.88
2023-03-28T10:38:43.552Z,101652.53
2023-03-28T10:41:09.911Z,101647.41
2023-03-28T10:43:37.069Z,101643.03
2023-03-28T10:46:03.453Z,101644.72
2023-03-28T10:48:29.859Z,101653.75
2023-03-28T10:50:56.365Z,101652.94
2023-03-28T10:53:23.066Z,101662.63
2023-03-28T10:55:49.651Z,101657.47
2023-03-28T10:58:16.035Z,101647.59
2023-03-28T11:00:42.655Z,101651.91
2023-03-28T11:03:09.831Z,101651.06
2023-03-28T11:05:36.664Z,101648.41
2023-03-28T11:08:03.417Z,101666.34
2023-03-28T11:10:29.933Z,101659.09
2023-03-28T11:12:58.545Z,101659.94
2023-03-28T11:15:25.623Z,101657.47
2023-03-28T11:17:52.064Z,101676.03
2023-03-28T11:20:18.441Z,101676.19
2023-03-28T11:22:52.511Z,101681.38
2023-03-28T11:25:22.321Z,101664.47
2023-03-28T11:27:48.810Z,101683.38
2023-03-28T11:30:15.124Z,101689.78
2023-03-28T11:32:41.486Z,101693.09
2023-03-28T11:35:08.368Z,101694.09
2023-03-28T11:37:35.030Z,101690.81
2023-03-28T11:40:01.664Z,101695.31
2023-03-28T11:42:28.906Z,101689.16
2023-03-28T11:44:56.369Z,101700.84
2023-03-28T11:47:23.005Z,101698.19
2023-03-28T11:49:49.776Z,101692.81
2023-03-28T11:52:16.110Z,101699.19
2023-03-28T11:54:42.972Z,101690.13
2023-03-28T11:57:09.793Z,101687.03
2023-03-28T11:59:36.210Z,101686.22
2023-03-28T12:02:03.013Z,101687.22
2023-03-28T12:04:30.015Z,101686.41
2023-03-28T12:07:02.956Z,101678.19
2023-03-28T12:09:29.967Z,101672.34
2023-03-28T12:11:56.482Z,101664.97
2023-03-28T12:14:23.195Z,101670.50
2023-03-28T12:16:49.939Z,101681.22
2023-03-28T12:19:16.437Z,101690.06
2023-03-28T12:21:43.630Z,101682.25
2023-03-28T12:24:10.049Z,101680.38
2023-03-28T12:26:37.151Z,101691.09
2023-03-28T12:29:03.504Z,101695.16
2023-03-28T12:31:30.026Z,101693.31
2023-03-28T12:33:56.455Z,101687.31
2023-03-28T12:36:22.860Z,101685.47
2023-03-28T12:38:49.468Z,101685.66
2023-03-28T12:41:15.862Z,101686.03
2023-03-28T12:43:42.657Z,101684.63
2023-03-28T12:46:09.017Z,101681.31
2023-03-28T12:48:35.485Z,101682.72
2023-03-28T12:51:02.190Z,101682.97
2023-03-28T12:53:29.120Z,101684.00
2023-03-28T12:55:55.717Z,101687.53
2023-03-28T12:58:22.061Z,101689.72
2023-03-28T13:00:48.465Z,101695.56
2023-03-28T13:03:14.906Z,101694.28
2023-03-28T13:05:41.339Z,101689.47
2023-03-28T13:08:07.649Z,101692.59
2023-03-28T13:10:34.041Z,101696.47
2023-03-28T13:13:00.414Z,101691.28
2023-03-28T13:15:27.488Z,101683.47
2023-03-28T13:17:54.258Z,101689.66
2023-03-28T13:20:20.722Z,101681.78
2023-03-28T13:22:47.341Z,101684.78
2023-03-28T13:25:13.842Z,101695.19
2023-03-28T13:27:40.821Z,101688.44
2023-03-28T13:30:07.146Z,101693.97
2023-03-28T13:32:34.035Z,101688.63
2023-03-28T13:35:00.455Z,101691.28
2023-03-28T13:37:27.514Z,101687.81
2023-03-28T13:39:53.867Z,101685.13
2023-03-28T13:42:20.193Z,101692.97
2023-03-28T13:44:46.588Z,101683.47
2023-03-28T13:47:12.959Z,101686.66
2023-03-28T13:49:39.520Z,101686.66
2023-03-28T13:52:05.931Z,101688.72
2023-03-28T13:54:32.311Z,101683.53
2023-03-28T13:56:58.736Z,101675.13
2023-03-28T13:59:25.366Z,101684.84
2023-03-28T14:01:51.796Z,101682.81
2023-03-28T14:04:18.156Z,101669.88
2023-03-28T14:06:44.506Z,101675.34
2023-03-28T14:09:11.315Z,101674.78
2023-03-28T14:11:38.048Z,101677.63
2023-03-28T14:14:05.546Z,101676.31
2023-03-28T14:16:33.274Z,101673.03
2023-03-28T14:19:00.082Z,101666.03
2023-03-28T14:21:26.735Z,101670.72
2023-03-28T14:23:53.519Z,101666.22
2023-03-28T14:26:20.000Z,101671.56
2023-03-28T14:28:46.567Z,101681.59
2023-03-28T14:31:12.952Z,101670.53
2023-03-28T14:33:39.261Z,101661.03
2023-03-28T14:36:05.791Z,101676.91
2023-03-28T14:38:32.215Z,101668.03
2023-03-28T14:40:59.033Z,101670.91
2023-03-28T14:43:25.896Z,101677.09
2023-03-28T14:45:52.658Z,101669.25
2023-03-28T14:48:19.891Z,101678.13
2023-03-28T14:50:46.709Z,101673.56
2023-03-28T14:53:13.567Z,101667.41
2023-03-28T14:55:40.437Z,101673.56
2023-03-28T14:58:06.949Z,101673.56
2023-03-28T15:00:33.459Z,101670.91
2023-03-28T15:02:59.837Z,101671.75
2023-03-28T15:05:26.181Z,101669.06
2023-03-28T15:07:52.624Z,101670.91
2023-03-28T15:10:19.058Z,101673.75
2023-03-28T15:12:45.453Z,101665.53
2023-03-28T15:15:12.158Z,101671.06
2023-03-28T15:17:38.716Z,101670.91
2023-03-28T15:20:05.069Z,101675.22
2023-03-28T15:22:31.410Z,101673.56
2023-03-28T15:24:57.755Z,101668.22
2023-03-28T15:27:24.456Z,101675.22
2023-03-28T15:29:50.995Z,101668.03
2023-03-28T15:32:17.334Z,101676.91
2023-03-28T15:34:44.080Z,101671.75
2023-03-28T15:37:10.937Z,101668.88
2023-03-28T15:39:37.280Z,101666.38
2023-03-28T15:42:03.888Z,101672.53
2023-03-28T15:44:30.204Z,101678.75
2023-03-28T15:46:57.088Z,101669.88
2023-03-28T15:49:23.400Z,101676.91
2023-03-28T15:51:49.734Z,101675.22
2023-03-28T15:54:27.940Z,101685.13
2023-03-28T15:56:55.386Z,101683.25
2023-03-28T15:59:23.403Z,101684.28
2023-03-28T16:01:49.869Z,101686.94
2023-03-28T16:04:16.214Z,101680.78
2023-03-28T16:06:43.038Z,101683.47
2023-03-28T16:09:09.664Z,101680.78
2023-03-28T16:11:36.397Z,101686.13
2023-03-28T16:14:02.709Z,101693.94
2023-03-28T16:16:29.124Z,101693.94
2023-03-28T16:18:56.467Z,101685.94
2023-03-28T16:21:22.858Z,101691.28
2023-03-28T16:23:49.677Z,101687.97
2023-03-28T16:26:16.952Z,101685.94
2023-03-28T16:28:43.270Z,101686.59
2023-03-28T16:31:09.782Z,101688.59
2023-03-28T16:33:36.146Z,101692.31
2023-03-28T16:36:02.720Z,101693.94
2023-03-28T16:38:29.265Z,101692.97
2023-03-28T16:40:55.851Z,101688.59
2023-03-28T16:43:22.166Z,101693.94
2023-03-28T16:45:48.749Z,101693.94
2023-03-28T16:48:15.078Z,101693.78
2023-03-28T16:50:41.468Z,101700.16
2023-03-28T16:53:07.849Z,101699.31
2023-03-28T16:55:34.345Z,101698.69
2023-03-28T16:58:00.990Z,101692.47
2023-03-28T17:00:27.338Z,101696.84
2023-03-28T17:02:54.578Z,101696.84
2023-03-28T17:05:21.633Z,101697.03
2023-03-28T17:07:48.811Z,101696.00
2023-03-28T17:10:15.117Z,101691.66
2023-03-28T17:12:41.800Z,101687.97
2023-03-28T17:15:08.140Z,101694.97
2023-03-28T17:17:34.526Z,101693.31
2023-03-28T17:20:00.921Z,101685.94
2023-03-28T17:22:27.698Z,101691.50
2023-03-28T17:24:53.966Z,101689.44
2023-03-28T17:27:20.660Z,101683.91
2023-03-28T17:29:47.729Z,101683.66
2023-03-28T17:32:14.257Z,101683.66
2023-03-28T17:34:40.738Z,101681.16
2023-03-28T17:37:07.855Z,101684.47
2023-03-28T17:39:34.225Z,101691.28
2023-03-28T17:42:00.742Z,101681.06
2023-03-28T17:44:27.057Z,101692.50
2023-03-28T17:46:53.484Z,101692.41
2023-03-28T17:49:19.903Z,101686.09
2023-03-28T17:51:46.355Z,101693.03
2023-03-28T17:54:13.134Z,101687.34
2023-03-28T17:56:39.663Z,101693.63
2023-03-28T17:59:06.146Z,101688.16
2023-03-28T18:01:33.148Z,101688.03
2023-03-28T18:03:59.767Z,101688.91
2023-03-28T18:06:26.371Z,101690.47
2023-03-28T18:08:53.031Z,101688.03
2023-03-28T18:11:19.407Z,101687.91
2023-03-28T18:13:45.770Z,101686.94
2023-03-28T18:16:12.336Z,101693.38
2023-03-28T18:18:38.776Z,101691.38
2023-03-28T18:21:05.440Z,101687.13
2023-03-28T18:23:31.816Z,101691.72
2023-03-28T18:25:58.248Z,101695.47
2023-03-28T18:28:24.674Z,101693.88
2023-03-28T18:30:51.066Z,101700.13
2023-03-28T18:33:17.741Z,101694.34
2023-03-28T18:35:44.592Z,101695.22
2023-03-28T18:38:10.987Z,101691.56
2023-03-28T18:40:37.427Z,101694.28
2023-03-28T18:43:03.856Z,101692.47
2023-03-28T18:45:30.222Z,101684.47
2023-03-28T18:47:56.664Z,101678.50
2023-03-28T18:50:23.016Z,101681.22
2023-03-28T18:52:49.551Z,101683.09
2023-03-28T18:55:15.939Z,101685.19
2023-03-28T18:57:42.384Z,101682.75
2023-03-28T19:00:09.013Z,101680.28
2023-03-28T19:02:35.494Z,101686.91
2023-03-28T19:05:02.317Z,101686.09
2023-03-28T19:07:28.933Z,101690.06
2023-03-28T19:09:55.390Z,101687.59
2023-03-28T19:12:21.734Z,101687.84
2023-03-28T19:14:48.114Z,101681.84
2023-03-28T19:17:14.495Z,101685.78
2023-03-28T19:19:40.824Z,101684.16
2023-03-28T19:22:07.203Z,101690.78
2023-03-28T19:24:33.536Z,101687.06
2023-03-28T19:27:01.472Z,101687.69
2023-03-28T19:29:29.374Z,101677.16
2023-03-28T19:31:55.725Z,101680.06
2023-03-28T19:34:22.366Z,101678.63
2023-03-28T19:36:49.016Z,101684.41
2023-03-28T19:39:15.610Z,101693.31
2023-03-28T19:41:41.975Z,101690.44
2023-03-28T19:44:08.268Z,101686.69
2023-03-28T19:46:37.935Z,101692.91
2023-03-28T19:49:05.377Z,101689.19
2023-03-28T19:51:31.740Z,101690.44
2023-03-28T19:53:58.404Z,101690.84
2023-03-28T19:56:25.249Z,101691.88
2023-03-28T19:58:52.042Z,101682.38
2023-03-28T20:01:18.898Z,101682.59
2023-03-28T20:03:45.521Z,101683.22
2023-03-28T20:06:11.883Z,101685.06
2023-03-28T20:08:38.323Z,101683.63
2023-03-28T20:11:04.715Z,101678.66
2023-03-28T20:13:31.121Z,101688.81
2023-03-28T20:15:57.687Z,101679.53
2023-03-28T20:18:24.173Z,101684.25
2023-03-28T20:20:50.740Z,101681.16
2023-03-28T20:23:17.297Z,101670.78
2023-03-28T20:25:43.707Z,101682.19
2023-03-28T20:28:10.152Z,101684.47
2023-03-28T20:30:37.013Z,101686.72
2023-03-28T20:33:03.563Z,101681.56
2023-03-28T20:35:30.017Z,101678.44
2023-03-28T20:37:56.366Z,101680.53
2023-03-28T20:40:22.706Z,101679.47
2023-03-28T20:42:49.006Z,101678.03
2023-03-28T20:45:15.909Z,101673.03
2023-03-28T20:47:42.282Z,101675.91
2023-03-28T20:50:08.621Z,101670.53
2023-03-28T20:52:35.492Z,101674.44
2023-03-28T20:55:01.988Z,101665.16
2023-03-28T20:57:28.321Z,101676.13
2023-03-28T20:59:55.070Z,101662.44
2023-03-28T21:02:21.361Z,101666.56
2023-03-28T21:04:47.823Z,101669.66
2023-03-28T21:07:14.254Z,101668.19
2023-03-28T21:09:40.590Z,101658.03
2023-03-28T21:12:07.291Z,101658.88
2023-03-28T21:14:33.688Z,101659.47
2023-03-28T21:17:00.118Z,101662.59
2023-03-28T21:19:27.121Z,101659.47
2023-03-28T21:21:53.439Z,101655.91
2023-03-28T21:24:19.910Z,101657.13
2023-03-28T21:26:46.226Z,101656.09
2023-03-28T21:29:12.561Z,101645.09
2023-03-28T21:31:39.279Z,101640.97
2023-03-28T21:34:05.755Z,101643.25
2023-03-28T21:36:32.137Z,101638.44
2023-03-28T21:38:58.522Z,101644.03
2023-03-28T21:41:24.862Z,101646.19
2023-03-28T21:43:51.218Z,101644.78
2023-03-28T21:46:17.684Z,101644.59
2023-03-28T21:48:44.403Z,101643.16
2023-03-28T21:51:10.781Z,101642.59
2023-03-28T21:53:37.147Z,101645.09
2023-03-28T21:56:03.673Z,101643.88
2023-03-28T21:58:30.183Z,101640.16
2023-03-28T22:00:56.624Z,101641.59
2023-03-28T22:03:23.133Z,101642.44
2023-03-28T22:05:49.577Z,101633.97
2023-03-28T22:08:16.047Z,101636.66
2023-03-28T22:10:42.416Z,101635.41
2023-03-28T22:13:08.831Z,101637.72
2023-03-28T22:15:35.574Z,101627.53
2023-03-28T22:18:02.043Z,101629.41
2023-03-28T22:20:28.416Z,101626.28
2023-03-28T22:22:54.984Z,101630.44
2023-03-28T22:25:21.344Z,101618.44
2023-03-28T22:27:48.143Z,101621.56
2023-03-28T22:30:14.958Z,101617.63
2023-03-28T22:32:41.430Z,101613.72
2023-03-28T22:35:08.005Z,101619.28
2023-03-28T22:37:34.278Z,101616.41
2023-03-28T22:40:00.660Z,101605.84
2023-03-28T22:42:27.345Z,101609.97
2023-03-28T22:44:53.686Z,101603.16
2023-03-28T22:47:20.183Z,101608.75
2023-03-28T22:49:46.735Z,101606.47
2023-03-28T22:52:13.242Z,101599.03
2023-03-28T22:54:39.594Z,101605.66
2023-03-28T22:57:06.087Z,101600.47
2023-03-28T22:59:32.612Z,101599.84
2023-03-28T23:01:58.936Z,101599.44
2023-03-28T23:04:25.256Z,101601.50
2023-03-28T23:06:51.811Z,101600.69
2023-03-28T23:09:18.459Z,101594.06
2023-03-28T23:11:44.823Z,101603.97
2023-03-28T23:14:11.282Z,101599.03
2023-03-28T23:16:37.612Z,101612.84
2023-03-28T23:19:04.257Z,101603.97
2023-03-28T23:21:30.947Z,101607.69
2023-03-28T23:23:57.426Z,101598.19
2023-03-28T23:26:23.794Z,101598.56
2023-03-28T23:28:50.086Z,101606.63
2023-03-28T23:31:16.471Z,101602.28
2023-03-28T23:33:42.957Z,101601.06
2023-03-28T23:36:09.283Z,101599.81
2023-03-28T23:38:35.648Z,101595.69
2023-03-28T23:41:02.274Z,101596.91
2023-03-28T23:43:28.779Z,101590.91
2023-03-28T23:45:55.623Z,101584.91
2023-03-28T23:48:22.012Z,101590.69
2023-03-28T23:50:48.716Z,101580.78
2023-03-28T23:53:15.199Z,101572.47
2023-03-28T23:55:41.576Z,101574.34
2023-03-28T23:58:07.941Z,101571.22
